createdAt,value
2023-03-02T00:01:09.984Z,18.50
2023-03-02T00:03:37.741Z,20.00
2023-03-02T00:06:04.261Z,18.60
2023-03-02T00:08:32.051Z,18.90
2023-03-02T00:10:58.547Z,19.43
2023-03-02T00:13:24.854Z,20.67
2023-03-02T00:15:51.242Z,19.93
2023-03-02T00:18:17.717Z,20.23
2023-03-02T00:20:44.142Z,19.63
2023-03-02T00:23:10.453Z,19.70
2023-03-02T00:25:36.861Z,21.20
2023-03-02T00:28:03.411Z,19.77
2023-03-02T00:30:29.789Z,19.53
2023-03-02T00:32:58.474Z,21.57
2023-03-02T00:35:26.983Z,20.60
2023-03-02T00:37:53.393Z,20.20
2023-03-02T00:40:19.878Z,21.10
2023-03-02T00:42:46.323Z,19.73
2023-03-02T00:45:12.638Z,20.60
2023-03-02T00:47:39.868Z,21.23
2023-03-02T00:50:07.125Z,20.93
2023-03-02T00:52:33.860Z,20.47
2023-03-02T00:55:00.220Z,20.70
2023-03-02T00:57:26.579Z,21.63
2023-03-02T00:59:53.015Z,21.60
2023-03-02T01:02:21.606Z,22.13
2023-03-02T01:04:48.389Z,22.60
2023-03-02T01:07:16.334Z,24.03
2023-03-02T01:09:43.663Z,21.93
2023-03-02T01:12:11.282Z,24.73
2023-03-02T01:14:42.324Z,24.70
2023-03-02T01:17:09.871Z,22.83
2023-03-02T01:19:36.805Z,20.03
2023-03-02T01:22:03.263Z,22.57
2023-03-02T01:24:29.768Z,23.60
2023-03-02T01:26:56.287Z,22.73
2023-03-02T01:29:22.709Z,23.23
2023-03-02T01:31:49.190Z,21.43
2023-03-02T01:34:15.789Z,23.67
2023-03-02T01:36:45.482Z,22.97
2023-03-02T01:39:15.923Z,21.03
2023-03-02T01:41:43.440Z,21.90
2023-03-02T01:44:28.473Z,22.90
2023-03-02T01:46:54.792Z,19.70
2023-03-02T01:49:21.558Z,21.57
2023-03-02T01:51:48.157Z,21.10
2023-03-02T01:54:22.756Z,22.67
2023-03-02T01:56:54.150Z,21.13
2023-03-02T01:59:22.197Z,22.30
2023-03-02T02:01:50.981Z,21.63
2023-03-02T02:04:17.702Z,21.47
2023-03-02T02:06:48.576Z,21.33
2023-03-02T02:09:16.614Z,20.40
2023-03-02T02:11:43.686Z,20.03
2023-03-02T02:14:10.146Z,20.57
2023-03-02T02:16:37.371Z,22.47
2023-03-02T02:19:18.186Z,20.77
2023-03-02T02:21:44.525Z,21.20
2023-03-02T02:24:21.607Z,19.10
2023-03-02T02:26:49.946Z,20.00
2023-03-02T02:29:23.009Z,21.40
2023-03-02T02:31:52.438Z,19.70
2023-03-02T02:34:24.745Z,20.03
2023-03-02T02:36:54.060Z,20.50
2023-03-02T02:39:25.705Z,19.33
2023-03-02T02:41:54.295Z,18.93
2023-03-02T02:44:20.663Z,18.80
2023-03-02T02:46:46.974Z,19.43
2023-03-02T02:49:33.299Z,18.20
2023-03-02T02:51:59.678Z,19.97
2023-03-02T02:54:26.506Z,19.33
2023-03-02T02:56:53.463Z,19.17
2023-03-02T02:59:22.039Z,18.67
2023-03-02T03:01:49.358Z,18.67
2023-03-02T03:04:19.582Z,19.03
2023-03-02T03:06:50.223Z,19.03
2023-03-02T03:09:16.800Z,19.07
2023-03-02T03:11:44.849Z,19.47
2023-03-02T03:14:11.214Z,18.30
2023-03-02T03:16:38.552Z,17.83
2023-03-02T03:19:06.654Z,19.83
2023-03-02T03:21:33.805Z,17.97
2023-03-02T03:24:00.222Z,17.57
2023-03-02T03:26:26.548Z,17.70
2023-03-02T03:28:52.887Z,17.53
2023-03-02T03:31:19.280Z,18.03
2023-03-02T03:33:45.727Z,18.70
2023-03-02T03:36:12.325Z,17.23
2023-03-02T03:38:38.923Z,19.60
2023-03-02T03:41:05.291Z,17.73
2023-03-02T03:43:32.080Z,17.53
2023-03-02T03:45:58.542Z,17.97
2023-03-02T03:48:24.842Z,16.73
2023-03-02T03:50:51.327Z,17.20
2023-03-02T03:53:17.711Z,18.23
2023-03-02T03:55:44.089Z,16.63
2023-03-02T03:58:10.481Z,18.87
2023-03-02T04:00:36.902Z,17.63
2023-03-02T04:03:03.223Z,17.33
2023-03-02T04:05:31.570Z,18.70
2023-03-02T04:08:01.990Z,17.87
2023-03-02T04:10:28.718Z,17.03
2023-03-02T04:12:55.128Z,17.70
2023-03-02T04:15:21.599Z,17.97
2023-03-02T04:17:47.913Z,16.43
2023-03-02T04:20:16.659Z,15.47
2023-03-02T04:22:47.153Z,15.40
2023-03-02T04:25:14.605Z,16.63
2023-03-02T04:27:40.928Z,17.47
2023-03-02T04:30:08.022Z,17.30
2023-03-02T04:32:34.499Z,15.20
2023-03-02T04:35:00.821Z,16.87
2023-03-02T04:37:27.190Z,15.97
2023-03-02T04:39:53.558Z,15.93
2023-03-02T04:42:20.329Z,16.53
2023-03-02T04:44:47.049Z,14.50
2023-03-02T04:47:13.466Z,15.50
2023-03-02T04:49:39.848Z,15.97
2023-03-02T04:52:06.199Z,15.57
2023-03-02T04:54:33.670Z,17.87
2023-03-02T04:56:59.982Z,15.47
2023-03-02T04:59:27.207Z,15.40
2023-03-02T05:01:55.170Z,15.70
2023-03-02T05:04:21.941Z,14.77
2023-03-02T05:06:48.574Z,16.07
2023-03-02T05:09:15.002Z,17.00
2023-03-02T05:11:42.367Z,14.43
2023-03-02T05:14:10.000Z,15.67
2023-03-02T05:16:37.604Z,16.80
2023-03-02T05:19:05.008Z,16.03
2023-03-02T05:21:31.480Z,16.17
2023-03-02T05:23:58.302Z,15.20
2023-03-02T05:26:24.652Z,13.63
2023-03-02T05:28:53.658Z,15.27
2023-03-02T05:31:27.436Z,15.07
2023-03-02T05:33:53.747Z,14.10
2023-03-02T05:36:22.862Z,15.13
2023-03-02T05:38:49.553Z,14.43
2023-03-02T05:41:16.897Z,14.60
2023-03-02T05:43:43.423Z,14.13
2023-03-02T05:46:09.865Z,14.63
2023-03-02T05:48:36.277Z,15.30
2023-03-02T05:51:02.795Z,13.93
2023-03-02T05:53:29.118Z,14.30
2023-03-02T05:55:55.821Z,14.70
2023-03-02T05:58:22.110Z,13.67
2023-03-02T06:00:49.011Z,13.80
2023-03-02T06:03:15.881Z,14.40
2023-03-02T06:05:42.485Z,15.73
2023-03-02T06:08:09.236Z,13.63
2023-03-02T06:10:36.071Z,16.00
2023-03-02T06:13:02.398Z,14.13
2023-03-02T06:15:29.717Z,14.53
2023-03-02T06:17:56.978Z,15.10
2023-03-02T06:20:23.376Z,15.93
2023-03-02T06:22:49.893Z,14.70
2023-03-02T06:25:20.620Z,14.07
2023-03-02T06:27:51.491Z,16.23
2023-03-02T06:30:21.461Z,14.63
2023-03-02T06:32:47.823Z,14.17
2023-03-02T06:35:14.389Z,14.17
2023-03-02T06:37:43.032Z,12.97
2023-03-02T06:40:11.224Z,15.73
2023-03-02T06:42:38.303Z,14.17
2023-03-02T06:45:05.304Z,13.30
2023-03-02T06:47:33.330Z,15.30
2023-03-02T06:49:59.948Z,13.53
2023-03-02T06:52:27.480Z,15.13
2023-03-02T06:54:54.526Z,14.33
2023-03-02T06:57:20.889Z,14.10
2023-03-02T06:59:47.299Z,15.90
2023-03-02T07:02:13.669Z,15.10
2023-03-02T07:04:40.137Z,15.53
2023-03-02T07:07:06.438Z,14.90
2023-03-02T07:09:33.994Z,14.83
2023-03-02T07:12:00.397Z,16.27
2023-03-02T07:14:26.759Z,16.70
2023-03-02T07:16:56.693Z,13.97
2023-03-02T07:19:23.211Z,15.27
2023-03-02T07:21:49.793Z,14.53
2023-03-02T07:24:16.180Z,16.93
2023-03-02T07:26:42.536Z,15.30
2023-03-02T07:29:08.900Z,15.13
2023-03-02T07:31:35.512Z,14.90
2023-03-02T07:34:02.070Z,15.23
2023-03-02T07:36:28.347Z,13.13
2023-03-02T07:38:55.040Z,15.53
2023-03-02T07:41:22.728Z,15.20
2023-03-02T07:43:49.185Z,17.07
2023-03-02T07:46:19.539Z,15.17
2023-03-02T07:48:47.971Z,15.23
2023-03-02T07:51:14.377Z,14.20
2023-03-02T07:53:41.149Z,16.23
2023-03-02T07:56:09.209Z,16.27
2023-03-02T07:58:35.853Z,16.97
2023-03-02T08:01:02.298Z,15.33
2023-03-02T08:03:29.421Z,14.07
2023-03-02T08:05:55.781Z,13.70
2023-03-02T08:08:22.253Z,15.57
2023-03-02T08:10:48.582Z,15.90
2023-03-02T08:13:15.025Z,17.20
2023-03-02T08:15:41.379Z,15.20
2023-03-02T08:18:11.259Z,16.27
2023-03-02T08:20:38.029Z,14.53
2023-03-02T08:23:04.303Z,15.23
2023-03-02T08:25:30.723Z,16.20
2023-03-02T08:27:57.516Z,15.70
2023-03-02T08:30:24.111Z,15.30
2023-03-02T08:32:50.537Z,15.53
2023-03-02T08:35:22.325Z,17.47
2023-03-02T08:37:48.886Z,14.43
2023-03-02T08:40:18.171Z,15.30
2023-03-02T08:42:44.549Z,14.63
2023-03-02T08:45:11.023Z,13.53
2023-03-02T08:47:38.235Z,13.20
2023-03-02T08:50:05.289Z,14.67
2023-03-02T08:52:34.824Z,14.87
2023-03-02T08:55:03.302Z,13.73
2023-03-02T08:57:30.152Z,13.73
2023-03-02T08:59:56.577Z,14.93
2023-03-02T09:02:22.841Z,14.30
2023-03-02T09:04:49.350Z,14.03
2023-03-02T09:07:17.346Z,13.07
2023-03-02T09:09:44.069Z,12.40
2023-03-02T09:12:10.382Z,12.43
2023-03-02T09:14:46.167Z,12.50
2023-03-02T09:17:15.541Z,12.43
2023-03-02T09:19:44.302Z,13.13
2023-03-02T09:22:10.834Z,12.97
2023-03-02T09:24:37.429Z,12.83
2023-03-02T09:27:03.822Z,11.60
2023-03-02T09:29:33.413Z,12.47
2023-03-02T09:32:02.759Z,11.67
2023-03-02T09:34:29.560Z,11.97
2023-03-02T09:36:56.197Z,10.40
2023-03-02T09:39:22.737Z,11.30
2023-03-02T09:42:03.499Z,11.67
2023-03-02T09:44:32.993Z,11.63
2023-03-02T09:47:04.057Z,11.03
2023-03-02T09:49:55.466Z,10.20
2023-03-02T09:52:29.529Z,11.70
2023-03-02T09:54:57.230Z,10.50
2023-03-02T09:57:34.410Z,10.70
2023-03-02T10:00:16.535Z,11.30
2023-03-02T10:02:49.508Z,11.27
2023-03-02T10:05:21.650Z,10.83
2023-03-02T10:07:48.929Z,11.43
2023-03-02T10:10:18.421Z,11.23
2023-03-02T10:12:50.941Z,11.20
2023-03-02T10:15:23.778Z,10.70
2023-03-02T10:18:06.932Z,10.27
2023-03-02T10:20:36.466Z,10.03
2023-03-02T10:23:19.302Z,11.80
2023-03-02T10:26:01.068Z,12.10
2023-03-02T10:28:32.228Z,12.63
2023-03-02T10:31:09.745Z,9.97
2023-03-02T10:33:37.447Z,11.03
2023-03-02T10:36:05.682Z,11.63
2023-03-02T10:38:32.096Z,9.83
2023-03-02T10:41:00.678Z,10.97
2023-03-02T10:43:26.949Z,11.17
2023-03-02T10:46:09.333Z,9.80
2023-03-02T10:48:50.917Z,11.27
2023-03-02T10:51:43.313Z,11.03
2023-03-02T10:54:11.378Z,10.50
2023-03-02T10:56:38.430Z,10.37
2023-03-02T10:59:23.537Z,10.03
2023-03-02T11:01:58.479Z,12.27
2023-03-02T11:04:24.872Z,10.00
2023-03-02T11:06:54.377Z,10.10
2023-03-02T11:09:20.792Z,11.60
2023-03-02T11:11:55.476Z,9.93
2023-03-02T11:14:23.784Z,10.10
2023-03-02T11:16:51.503Z,11.83
2023-03-02T11:19:23.165Z,9.93
2023-03-02T11:21:55.661Z,11.03
2023-03-02T11:24:26.264Z,10.67
2023-03-02T11:26:56.539Z,11.77
2023-03-02T11:29:26.002Z,9.83
2023-03-02T11:31:54.911Z,10.83
2023-03-02T11:34:22.513Z,11.50
2023-03-02T11:36:53.380Z,11.50
2023-03-02T11:39:25.148Z,11.63
2023-03-02T11:41:52.232Z,10.60
2023-03-02T11:44:20.248Z,10.57
2023-03-02T11:46:51.479Z,10.17
2023-03-02T11:49:21.380Z,11.03
2023-03-02T11:51:59.048Z,11.33
2023-03-02T11:54:39.209Z,11.23
2023-03-02T11:57:05.683Z,11.90
2023-03-02T11:59:32.666Z,11.57
2023-03-02T12:02:00.617Z,11.13
2023-03-02T12:04:34.948Z,10.13
2023-03-02T12:07:02.473Z,10.67
2023-03-02T12:09:34.428Z,10.60
2023-03-02T12:12:14.939Z,10.20
2023-03-02T12:14:42.393Z,10.20
2023-03-02T12:17:17.809Z,11.40
2023-03-02T12:19:45.240Z,12.13
2023-03-02T12:22:14.535Z,11.40
2023-03-02T12:24:42.968Z,12.30
2023-03-02T12:27:15.058Z,11.03
2023-03-02T12:29:42.986Z,10.27
2023-03-02T12:32:14.131Z,11.00
2023-03-02T12:34:44.487Z,10.70
2023-03-02T12:37:16.822Z,11.80
2023-03-02T12:39:50.309Z,11.03
2023-03-02T12:42:25.903Z,10.77
2023-03-02T12:45:13.508Z,11.57
2023-03-02T12:47:44.507Z,12.07
2023-03-02T12:50:19.748Z,12.77
2023-03-02T12:52:55.993Z,12.27
2023-03-02T12:55:22.319Z,10.60
2023-03-02T12:57:54.112Z,11.97
2023-03-02T13:00:22.196Z,12.57
2023-03-02T13:02:49.900Z,10.90
2023-03-02T13:05:27.280Z,10.30
2023-03-02T13:07:53.619Z,9.67
2023-03-02T13:10:22.849Z,10.63
2023-03-02T13:12:49.284Z,10.23
2023-03-02T13:15:17.058Z,10.33
2023-03-02T13:17:44.158Z,10.10
2023-03-02T13:20:12.948Z,10.80
2023-03-02T13:22:40.606Z,9.17
2023-03-02T13:25:08.308Z,10.57
2023-03-02T13:27:34.807Z,9.20
2023-03-02T13:30:09.143Z,9.67
2023-03-02T13:32:38.879Z,9.27
2023-03-02T13:35:20.325Z,10.00
2023-03-02T13:37:46.800Z,9.00
2023-03-02T13:40:22.429Z,10.73
2023-03-02T13:42:48.909Z,10.90
2023-03-02T13:45:23.551Z,9.83
2023-03-02T13:47:49.950Z,8.70
2023-03-02T13:50:17.680Z,9.53
2023-03-02T13:52:44.026Z,9.53
2023-03-02T13:55:14.286Z,9.27
2023-03-02T13:57:41.725Z,10.10
2023-03-02T14:00:13.505Z,10.13
2023-03-02T14:02:40.763Z,11.50
2023-03-02T14:05:09.829Z,9.43
2023-03-02T14:07:36.349Z,10.50
2023-03-02T14:10:02.809Z,9.70
2023-03-02T14:12:31.188Z,10.43
2023-03-02T14:14:58.514Z,8.33
2023-03-02T14:17:25.396Z,9.23
2023-03-02T14:19:55.328Z,8.93
2023-03-02T14:22:22.332Z,9.87
2023-03-02T14:24:49.088Z,9.27
2023-03-02T14:27:16.074Z,9.90
2023-03-02T14:29:43.212Z,9.47
2023-03-02T14:32:10.521Z,9.40
2023-03-02T14:34:37.339Z,8.90
2023-03-02T14:37:08.185Z,9.23
2023-03-02T14:39:41.632Z,8.43
2023-03-02T14:42:11.980Z,8.73
2023-03-02T14:44:38.279Z,8.07
2023-03-02T14:47:04.748Z,7.93
2023-03-02T14:49:31.068Z,8.70
2023-03-02T14:52:09.057Z,10.30
2023-03-02T14:54:40.633Z,9.07
2023-03-02T14:57:13.023Z,8.53
2023-03-02T14:59:39.364Z,9.43
2023-03-02T15:02:15.903Z,8.97
2023-03-02T15:04:56.112Z,9.03
2023-03-02T15:07:22.742Z,8.77
2023-03-02T15:09:49.057Z,9.97
2023-03-02T15:12:15.361Z,9.03
2023-03-02T15:14:41.759Z,9.80
2023-03-02T15:17:08.148Z,7.93
2023-03-02T15:19:34.486Z,9.00
2023-03-02T15:22:03.798Z,9.53
2023-03-02T15:24:33.523Z,8.50
2023-03-02T15:27:00.097Z,8.07
2023-03-02T15:29:26.557Z,7.83
2023-03-02T15:31:52.989Z,9.87
2023-03-02T15:34:19.490Z,9.43
2023-03-02T15:36:45.822Z,8.37
2023-03-02T15:39:14.377Z,9.77
2023-03-02T15:41:42.411Z,8.67
2023-03-02T15:44:15.735Z,9.03
2023-03-02T15:46:42.109Z,9.47
2023-03-02T15:49:08.911Z,10.27
2023-03-02T15:51:35.308Z,10.73
2023-03-02T15:54:01.649Z,9.73
2023-03-02T15:56:32.855Z,10.27
2023-03-02T15:59:05.230Z,10.17
2023-03-02T16:01:31.643Z,10.37
2023-03-02T16:04:01.383Z,11.03
2023-03-02T16:06:27.901Z,9.87
2023-03-02T16:08:54.315Z,10.87
2023-03-02T16:11:23.376Z,11.47
2023-03-02T16:13:51.722Z,11.40
2023-03-02T16:16:19.493Z,10.20
2023-03-02T16:18:52.839Z,10.37
2023-03-02T16:21:19.262Z,11.37
2023-03-02T16:23:45.764Z,9.73
2023-03-02T16:26:14.807Z,9.93
2023-03-02T16:28:41.731Z,10.80
2023-03-02T16:31:09.991Z,9.23
2023-03-02T16:33:36.683Z,9.50
2023-03-02T16:36:03.262Z,11.20
2023-03-02T16:38:29.860Z,10.67
2023-03-02T16:40:57.225Z,11.03
2023-03-02T16:43:24.432Z,10.47
2023-03-02T16:45:51.528Z,10.93
2023-03-02T16:48:18.125Z,9.90
2023-03-02T16:50:46.153Z,8.03
2023-03-02T16:53:13.506Z,10.37
2023-03-02T16:55:39.873Z,9.23
2023-03-02T16:58:06.268Z,9.07
2023-03-02T17:00:32.586Z,9.70
2023-03-02T17:02:58.936Z,9.80
2023-03-02T17:05:25.257Z,9.50
2023-03-02T17:07:52.670Z,7.73
2023-03-02T17:10:20.400Z,9.53
2023-03-02T17:12:46.912Z,9.60
2023-03-02T17:15:14.269Z,9.27
2023-03-02T17:17:41.831Z,9.67
2023-03-02T17:20:09.140Z,9.63
2023-03-02T17:22:35.476Z,9.17
2023-03-02T17:25:04.412Z,9.43
2023-03-02T17:27:31.059Z,9.07
2023-03-02T17:29:57.464Z,9.20
2023-03-02T17:32:24.423Z,9.77
2023-03-02T17:34:50.967Z,9.27
2023-03-02T17:37:20.012Z,10.63
2023-03-02T17:39:48.581Z,10.30
2023-03-02T17:42:15.095Z,11.23
2023-03-02T17:44:41.412Z,10.23
2023-03-02T17:47:08.343Z,10.20
2023-03-02T17:49:38.134Z,9.83
2023-03-02T17:52:04.452Z,10.53
2023-03-02T17:54:30.890Z,10.00
2023-03-02T17:56:57.300Z,9.63
2023-03-02T17:59:23.679Z,9.67
2023-03-02T18:01:50.110Z,9.50
2023-03-02T18:04:16.493Z,8.67
2023-03-02T18:06:43.016Z,8.10
2023-03-02T18:09:10.182Z,8.73
2023-03-02T18:11:36.715Z,8.63
2023-03-02T18:14:03.216Z,8.30
2023-03-02T18:16:29.566Z,7.47
2023-03-02T18:18:57.210Z,7.83
2023-03-02T18:21:23.628Z,7.80
2023-03-02T18:23:51.290Z,6.93
2023-03-02T18:26:17.601Z,7.67
2023-03-02T18:28:44.117Z,6.93
2023-03-02T18:31:11.577Z,6.67
2023-03-02T18:33:38.114Z,7.10
2023-03-02T18:36:05.468Z,7.03
2023-03-02T18:38:32.767Z,7.17
2023-03-02T18:41:00.812Z,6.57
2023-03-02T18:43:27.869Z,7.10
2023-03-02T18:45:54.320Z,6.60
2023-03-02T18:48:21.034Z,6.67
2023-03-02T18:50:47.440Z,6.60
2023-03-02T18:53:13.941Z,6.47
2023-03-02T18:55:40.724Z,6.43
2023-03-02T18:58:07.526Z,6.17
2023-03-02T19:00:35.016Z,6.47
2023-03-02T19:03:01.460Z,6.33
2023-03-02T19:05:29.717Z,6.87
2023-03-02T19:07:59.000Z,5.50
2023-03-02T19:10:25.574Z,6.33
2023-03-02T19:12:51.904Z,5.90
2023-03-02T19:15:18.277Z,6.80
2023-03-02T19:17:44.617Z,7.03
2023-03-02T19:20:13.250Z,5.97
2023-03-02T19:22:39.592Z,6.30
2023-03-02T19:25:06.285Z,7.07
2023-03-02T19:27:32.626Z,6.90
2023-03-02T19:29:59.048Z,6.10
2023-03-02T19:32:25.446Z,6.20
2023-03-02T19:34:51.881Z,6.70
2023-03-02T19:37:18.265Z,6.30
2023-03-02T19:39:44.675Z,6.60
2023-03-02T19:42:11.352Z,6.73
2023-03-02T19:44:37.720Z,6.70
2023-03-02T19:47:04.584Z,6.73
2023-03-02T19:49:30.940Z,6.10
2023-03-02T19:51:59.002Z,6.00
2023-03-02T19:54:25.614Z,6.33
2023-03-02T19:56:53.913Z,6.30
2023-03-02T19:59:22.031Z,6.17
2023-03-02T20:01:49.394Z,6.83
2023-03-02T20:04:16.211Z,6.83
2023-03-02T20:06:42.605Z,7.37
2023-03-02T20:09:09.664Z,6.43
2023-03-02T20:11:36.055Z,6.37
2023-03-02T20:14:02.448Z,7.40
2023-03-02T20:16:30.124Z,7.53
2023-03-02T20:18:57.949Z,7.27
2023-03-02T20:21:26.949Z,7.37
2023-03-02T20:23:53.601Z,6.70
2023-03-02T20:26:20.514Z,7.20
2023-03-02T20:28:47.983Z,6.37
2023-03-02T20:31:15.648Z,6.83
2023-03-02T20:33:43.848Z,7.70
2023-03-02T20:36:11.773Z,7.40
2023-03-02T20:38:43.861Z,6.70
2023-03-02T20:41:11.776Z,6.70
2023-03-02T20:43:38.714Z,6.80
2023-03-02T20:46:05.685Z,7.87
2023-03-02T20:48:33.614Z,7.00
2023-03-02T20:51:00.028Z,6.97
2023-03-02T20:53:28.106Z,7.07
2023-03-02T20:55:54.507Z,6.80
2023-03-02T20:58:20.983Z,7.47
2023-03-02T21:00:48.855Z,7.23
2023-03-02T21:03:15.330Z,7.37
2023-03-02T21:05:41.761Z,7.03
2023-03-02T21:08:09.078Z,7.10
2023-03-02T21:10:36.580Z,7.33
2023-03-02T21:13:03.953Z,5.93
2023-03-02T21:15:30.541Z,7.07
2023-03-02T21:17:59.200Z,6.13
2023-03-02T21:20:26.881Z,6.77
2023-03-02T21:22:53.180Z,6.87
2023-03-02T21:25:19.750Z,6.67
2023-03-02T21:27:46.148Z,6.47
2023-03-02T21:30:15.138Z,6.13
2023-03-02T21:32:45.575Z,6.00
2023-03-02T21:35:16.270Z,5.97
2023-03-02T21:37:43.204Z,6.73
2023-03-02T21:40:13.466Z,5.63
2023-03-02T21:42:39.855Z,5.77
2023-03-02T21:45:08.921Z,5.43
2023-03-02T21:47:36.112Z,6.10
2023-03-02T21:50:02.848Z,6.00
2023-03-02T21:52:29.154Z,4.70
2023-03-02T21:54:55.475Z,5.87
2023-03-02T21:57:21.868Z,6.10
2023-03-02T21:59:48.245Z,5.67
2023-03-02T22:02:14.539Z,6.03
2023-03-02T22:04:41.674Z,6.67
2023-03-02T22:07:08.012Z,5.53
2023-03-02T22:09:34.366Z,6.00
2023-03-02T22:12:00.842Z,6.10
2023-03-02T22:14:27.144Z,6.30
2023-03-02T22:16:53.444Z,6.30
2023-03-02T22:19:27.149Z,5.90
2023-03-02T22:21:59.871Z,6.27
2023-03-02T22:24:27.819Z,6.20
2023-03-02T22:27:02.599Z,6.03
2023-03-02T22:29:31.628Z,6.57
2023-03-02T22:32:04.293Z,6.40
2023-03-02T22:34:31.037Z,5.83
2023-03-02T22:37:06.209Z,6.47
2023-03-02T22:39:33.346Z,6.23
2023-03-02T22:42:09.954Z,5.90
2023-03-02T22:44:36.284Z,7.17
2023-03-02T22:47:05.682Z,6.67
2023-03-02T22:49:32.783Z,6.67
2023-03-02T22:52:02.732Z,5.40
2023-03-02T22:54:35.997Z,6.30
2023-03-02T22:57:02.926Z,6.73
2023-03-02T22:59:35.949Z,5.87
2023-03-02T23:02:06.308Z,6.10
2023-03-02T23:04:36.702Z,6.90
2023-03-02T23:07:12.323Z,7.07
2023-03-02T23:09:38.687Z,6.07
2023-03-02T23:12:09.767Z,6.50
2023-03-02T23:14:39.333Z,6.63
2023-03-02T23:17:11.890Z,6.20
2023-03-02T23:19:38.420Z,7.33
2023-03-02T23:22:04.761Z,6.70
2023-03-02T23:24:31.123Z,6.70
2023-03-02T23:26:57.620Z,6.00
2023-03-02T23:29:23.956Z,6.37
2023-03-02T23:31:50.331Z,6.40
2023-03-02T23:34:16.920Z,6.90
2023-03-02T23:36:43.720Z,5.57
2023-03-02T23:39:10.662Z,6.97
2023-03-02T23:41:37.258Z,6.40
2023-03-02T23:44:04.763Z,7.07
2023-03-02T23:46:31.203Z,6.20
2023-03-02T23:48:57.903Z,5.53
2023-03-02T23:51:25.526Z,5.50
2023-03-02T23:53:52.531Z,4.83
2023-03-02T23:56:19.279Z,4.73
2023-03-02T23:58:45.830Z,4.97
